Time;durP1;ratioP1;P1;durP2;ratioP2;P2;SDS_P1;SDS_P2;PMS_P1;PMS_P2;Temp;Humidity;BMP_temperature;BMP_pressure;BME280_temperature;BME280_humidity;BME280_pressure;Samples;Min_cycle;Max_cycle;Signal;HPM_P1;HPM_P2
2022/07/20 00:01:59;;;;;;;1.50;0.70;;;;;;;21.51;45.87;99495.28;6160447;23;20216;-92
2022/07/20 00:04:25;;;;;;;1.33;0.80;;;;;;;21.44;46.17;99501.16;6186260;23;20558;-93
2022/07/20 00:06:50;;;;;;;2.10;0.70;;;;;;;21.40;45.94;99501.59;6160175;23;20582;-93
2022/07/20 00:12:02;;;;;;;3.47;0.80;;;;;;;21.27;46.24;99499.19;6186374;23;20557;-93
2022/07/20 00:14:28;;;;;;;2.00;0.80;;;;;;;21.28;46.75;99503.53;6184945;23;20169;-93
2022/07/20 00:16:53;;;;;;;0.93;0.50;;;;;;;21.27;46.80;99506.34;6216149;23;20145;-93
2022/07/20 00:19:19;;;;;;;1.30;0.60;;;;;;;21.18;47.44;99502.69;6190397;23;20154;-93
2022/07/20 00:21:45;;;;;;;1.87;0.73;;;;;;;21.09;47.43;99492.88;6190078;23;20185;-94
2022/07/20 00:24:10;;;;;;;0.60;0.40;;;;;;;20.99;47.63;99497.28;6190064;23;20175;-93
2022/07/20 00:26:36;;;;;;;3.83;0.77;;;;;;;20.92;47.80;99493.50;6190078;23;20164;-93
2022/07/20 00:29:02;;;;;;;0.57;0.47;;;;;;;20.84;47.87;99498.66;6190221;23;20165;-93
2022/07/20 00:31:28;;;;;;;0.70;0.50;;;;;;;20.78;48.20;99497.38;6189950;23;20157;-93
2022/07/20 00:33:53;;;;;;;0.80;0.40;;;;;;;20.73;48.54;99499.59;6216013;23;20150;-93
2022/07/20 00:36:20;;;;;;;0.90;0.50;;;;;;;20.75;48.08;99497.66;6189760;23;20193;-93
2022/07/20 00:38:45;;;;;;;2.70;0.67;;;;;;;20.77;47.97;99494.88;6189968;23;20215;-92
2022/07/20 00:41:11;;;;;;;1.57;0.77;;;;;;;20.71;48.37;99490.91;6190421;23;20157;-93
2022/07/20 00:43:57;;;;;;;1.87;0.80;;;;;;;20.75;48.00;99496.81;6189774;23;20531;-93
2022/07/20 00:46:23;;;;;;;1.13;0.50;;;;;;;20.77;48.29;99492.19;6189719;23;20150;-92
2022/07/20 00:48:49;;;;;;;1.67;0.60;;;;;;;20.78;48.22;99494.72;6190299;23;20157;-93
2022/07/20 00:51:15;;;;;;;0.90;0.60;;;;;;;20.81;48.39;99485.59;6189767;23;20166;-93
2022/07/20 00:53:42;;;;;;;1.60;0.60;;;;;;;20.98;47.98;99492.94;6216107;23;20561;-93
2022/07/20 00:56:09;;;;;;;1.80;0.80;;;;;;;20.91;47.96;99482.97;6189841;23;20149;-92
2022/07/20 00:58:35;;;;;;;1.97;0.70;;;;;;;20.81;48.55;99485.59;6189885;23;20530;-93
2022/07/20 01:01:00;;;;;;;1.57;0.67;;;;;;;20.72;49.20;99486.44;6189724;23;20177;-92
2022/07/20 01:03:27;;;;;;;2.70;0.70;;;;;;;20.73;48.65;99485.44;6189908;23;20252;-93
2022/07/20 01:05:53;;;;;;;0.80;0.40;;;;;;;20.71;48.71;99477.59;6215974;23;20592;-92
2022/07/20 01:08:18;;;;;;;6.00;0.90;;;;;;;20.72;48.62;99475.78;6189837;23;20153;-92
2022/07/20 01:10:44;;;;;;;1.20;0.50;;;;;;;20.72;48.73;99471.31;6216185;23;20149;-92
2022/07/20 01:13:11;;;;;;;2.13;0.53;;;;;;;20.76;49.02;99470.03;6189617;23;20184;-93
2022/07/20 01:15:36;;;;;;;1.93;0.53;;;;;;;20.78;48.65;99470.72;6189215;23;20166;-92
2022/07/20 01:18:02;;;;;;;1.17;0.50;;;;;;;20.75;48.29;99476.34;6215524;23;20150;-92
2022/07/20 01:20:29;;;;;;;1.70;0.50;;;;;;;20.74;48.78;99465.81;6189334;23;20231;-93
2022/07/20 01:22:55;;;;;;;0.97;0.50;;;;;;;20.79;48.63;99466.25;6189324;23;20185;-91
2022/07/20 01:25:20;;;;;;;2.27;1.20;;;;;;;20.62;49.21;99467.75;6217523;23;20217;-91
2022/07/20 01:27:46;;;;;;;1.23;0.70;;;;;;;20.54;49.33;99464.09;6217658;23;20149;-92
2022/07/20 01:30:12;;;;;;;2.63;0.77;;;;;;;20.47;50.01;99469.09;6191450;23;20179;-92
2022/07/20 01:32:37;;;;;;;1.30;0.70;;;;;;;20.35;50.86;99458.69;6217617;23;20142;-92
2022/07/20 01:35:03;;;;;;;2.30;0.77;;;;;;;20.21;51.61;99457.19;6217681;23;20221;-91
2022/07/20 01:37:29;;;;;;;1.37;0.60;;;;;;;20.09;51.54;99467.09;6217587;23;20166;-92
2022/07/20 01:39:55;;;;;;;1.97;1.00;;;;;;;20.02;51.77;99460.59;6191495;23;20160;-92
2022/07/20 01:42:21;;;;;;;0.83;0.40;;;;;;;20.11;50.93;99461.63;6191288;23;20185;-92
2022/07/20 01:44:46;;;;;;;1.47;0.73;;;;;;;20.25;50.27;99465.78;6217565;23;20268;-92
2022/07/20 01:47:12;;;;;;;1.83;0.70;;;;;;;20.23;50.35;99464.09;6191357;23;20166;-92
2022/07/20 01:49:38;;;;;;;1.13;0.60;;;;;;;20.16;50.82;99468.25;6217401;23;20150;-92
2022/07/20 01:52:04;;;;;;;1.80;0.83;;;;;;;20.04;50.52;99461.34;6191417;23;20146;-92
2022/07/20 01:54:29;;;;;;;1.47;0.60;;;;;;;19.96;51.24;99465.63;6191424;23;20164;-92
2022/07/20 01:56:55;;;;;;;1.23;0.63;;;;;;;20.00;50.89;99467.88;6191325;23;20231;-93
2022/07/20 01:59:20;;;;;;;0.80;0.50;;;;;;;19.91;50.95;99465.19;6217136;23;20532;-92
2022/07/20 02:01:46;;;;;;;1.07;0.60;;;;;;;19.93;50.99;99469.38;6217299;23;20177;-92
2022/07/20 02:04:12;;;;;;;1.17;0.53;;;;;;;19.96;50.77;99471.78;6191263;23;20221;-92
2022/07/20 02:06:37;;;;;;;1.50;0.63;;;;;;;19.95;50.65;99470.09;6191616;23;20212;-92
2022/07/20 02:09:03;;;;;;;1.43;0.70;;;;;;;19.97;50.16;99473.47;6217222;23;20160;-92
2022/07/20 02:11:29;;;;;;;1.93;0.60;;;;;;;19.95;50.00;99469.25;6217096;23;20164;-92
2022/07/20 02:13:54;;;;;;;1.80;0.70;;;;;;;19.89;50.20;99469.78;6190974;23;20166;-92
2022/07/20 02:16:20;;;;;;;2.10;0.77;;;;;;;19.88;50.44;99468.09;6217380;23;20236;-92
2022/07/20 02:18:53;;;;;;;1.87;0.67;;;;;;;19.67;51.15;99462.78;6191122;23;20211;-91
2022/07/20 02:21:20;;;;;;;1.10;0.50;;;;;;;19.58;51.61;99463.53;6217075;23;20156;-92
2022/07/20 02:23:46;;;;;;;1.20;0.50;;;;;;;19.55;51.09;99464.66;6217047;23;20477;-91
2022/07/20 02:26:12;;;;;;;1.60;0.60;;;;;;;19.53;51.58;99468.41;6217495;23;20149;-91
2022/07/20 02:28:39;;;;;;;3.83;1.23;;;;;;;19.46;51.41;99468.09;6217053;23;20160;-91
2022/07/20 02:31:05;;;;;;;3.47;1.00;;;;;;;19.50;51.57;99466.00;6190784;23;20153;-91
2022/07/20 02:33:30;;;;;;;0.87;0.43;;;;;;;19.49;51.23;99470.50;6190494;23;20472;-92
2022/07/20 02:35:56;;;;;;;2.00;0.60;;;;;;;19.50;51.16;99464.19;6190445;23;20256;-91
2022/07/20 02:38:22;;;;;;;4.37;1.27;;;;;;;19.50;51.26;99468.66;6217091;23;20225;-91
2022/07/20 02:40:48;;;;;;;2.27;0.83;;;;;;;19.45;51.61;99469.06;6217119;23;20145;-91
2022/07/20 02:43:13;;;;;;;1.70;0.57;;;;;;;19.44;51.79;99475.34;6190440;23;20177;-92
2022/07/20 02:45:39;;;;;;;2.00;0.67;;;;;;;19.44;51.84;99477.16;6190673;23;20165;-92
2022/07/20 02:48:05;;;;;;;2.57;0.93;;;;;;;19.45;52.01;99473.53;6190643;23;20153;-92
2022/07/20 02:50:36;;;;;;;2.00;0.70;;;;;;;19.53;51.30;99479.03;6190630;23;20153;-92
2022/07/20 02:53:02;;;;;;;1.60;0.63;;;;;;;19.57;51.07;99480.50;6216654;23;20150;-91
2022/07/20 02:55:28;;;;;;;1.53;0.70;;;;;;;19.55;51.12;99482.41;6216447;23;20157;-91
2022/07/20 02:57:53;;;;;;;1.23;0.50;;;;;;;19.55;50.87;99477.09;6216932;23;20149;-91
2022/07/20 03:00:20;;;;;;;1.30;0.70;;;;;;;19.56;50.67;99478.78;6216476;23;20164;-91
2022/07/20 03:02:49;;;;;;;1.60;0.67;;;;;;;19.56;50.62;99478.78;6190417;23;20641;-92
2022/07/20 03:05:15;;;;;;;2.37;0.50;;;;;;;19.36;52.04;99483.09;6216795;23;20619;-92
2022/07/20 03:07:40;;;;;;;1.47;0.50;;;;;;;19.27;52.52;99483.84;6190464;23;20154;-92
2022/07/20 03:10:07;;;;;;;0.97;0.60;;;;;;;19.27;52.61;99488.31;6217021;23;20530;-92
2022/07/20 03:12:32;;;;;;;1.57;0.73;;;;;;;19.19;53.38;99490.75;6190667;23;20150;-92
2022/07/20 03:14:58;;;;;;;3.23;0.63;;;;;;;19.23;53.20;99490.41;6216654;23;20164;-91
2022/07/20 03:17:23;;;;;;;1.33;0.80;;;;;;;19.30;53.06;99493.38;6216401;23;20222;-92
2022/07/20 03:19:49;;;;;;;4.10;1.33;;;;;;;19.28;53.12;99493.53;6190325;23;20154;-91
2022/07/20 03:22:15;;;;;;;2.73;0.70;;;;;;;19.27;53.25;99496.28;6189964;23;20205;-92
2022/07/20 03:24:40;;;;;;;1.17;0.63;;;;;;;19.19;53.60;99496.06;6216628;23;20156;-91
2022/07/20 03:27:06;;;;;;;2.00;1.27;;;;;;;19.24;53.46;99493.88;6190150;23;20489;-91
2022/07/20 03:29:32;;;;;;;1.20;0.60;;;;;;;19.18;54.07;99494.41;6216298;23;20153;-91
2022/07/20 03:31:57;;;;;;;3.23;0.63;;;;;;;19.13;54.35;99496.59;6190223;23;20149;-91
2022/07/20 03:34:23;;;;;;;1.07;0.63;;;;;;;19.26;53.54;99491.97;6216441;23;20148;-92
2022/07/20 03:36:48;;;;;;;2.43;0.83;;;;;;;19.19;54.09;99491.59;6190149;23;20209;-91
2022/07/20 03:39:15;;;;;;;2.17;0.90;;;;;;;19.13;54.23;99493.94;6190091;23;20157;-91
2022/07/20 03:41:41;;;;;;;1.07;0.60;;;;;;;19.12;54.66;99484.25;6215912;23;20161;-92
2022/07/20 03:44:06;;;;;;;1.77;0.90;;;;;;;19.09;54.63;99489.81;6189826;23;20165;-92
2022/07/20 03:46:32;;;;;;;4.37;1.00;;;;;;;19.09;55.08;99496.00;6189730;23;20232;-91
2022/07/20 03:48:57;;;;;;;1.47;0.67;;;;;;;19.14;54.83;99498.25;6190005;23;20150;-92
2022/07/20 03:51:23;;;;;;;1.23;0.67;;;;;;;19.21;55.00;99499.47;6189756;23;20156;-92
2022/07/20 03:53:48;;;;;;;1.80;0.80;;;;;;;19.16;55.46;99502.47;6216255;23;20617;-91
2022/07/20 03:56:14;;;;;;;2.47;0.70;;;;;;;19.24;55.67;99504.50;6216114;23;20150;-92
2022/07/20 03:58:39;;;;;;;1.97;1.07;;;;;;;19.37;55.80;99499.88;6190261;23;20157;-92
2022/07/20 04:01:05;;;;;;;1.33;0.60;;;;;;;19.46;55.58;99496.50;6216367;23;20153;-92
2022/07/20 04:03:30;;;;;;;4.23;1.13;;;;;;;19.42;56.31;99503.03;6190247;23;20184;-93
2022/07/20 04:05:55;;;;;;;1.70;0.60;;;;;;;19.46;56.38;99499.16;6190286;23;20185;-92
2022/07/20 04:08:21;;;;;;;0.93;0.57;;;;;;;19.36;56.74;99514.16;6190417;23;20150;-93
2022/07/20 04:10:46;;;;;;;5.20;1.33;;;;;;;19.57;56.66;99501.75;6216334;23;20145;-95
2022/07/20 04:13:12;;;;;;;1.40;0.63;;;;;;;19.70;56.11;99507.75;6190150;23;20355;-94
2022/07/20 04:15:37;;;;;;;1.33;0.60;;;;;;;19.81;55.71;99505.00;6190275;23;20161;-95
2022/07/20 04:18:03;;;;;;;0.90;0.60;;;;;;;19.85;55.93;99505.59;6216910;23;20569;-94
2022/07/20 04:20:29;;;;;;;1.67;1.17;;;;;;;20.02;54.70;99505.84;6190183;23;20165;-94
2022/07/20 04:22:57;;;;;;;1.30;0.80;;;;;;;20.22;53.68;99510.31;6190043;23;20173;-95
2022/07/20 04:25:22;;;;;;;1.93;0.80;;;;;;;20.34;53.84;99510.25;6189383;23;20158;-94
2022/07/20 04:27:49;;;;;;;1.73;0.90;;;;;;;20.44;54.11;99513.81;6190572;23;20158;-95
2022/07/20 04:30:16;;;;;;;1.50;0.90;;;;;;;20.63;53.20;99506.72;6190108;23;20154;-95
2022/07/20 04:32:43;;;;;;;1.67;1.00;;;;;;;20.72;53.34;99515.75;6190250;23;20644;-94
2022/07/20 04:35:09;;;;;;;1.30;0.83;;;;;;;20.95;52.13;99506.53;6190285;23;20158;-93
2022/07/20 04:37:35;;;;;;;2.33;1.13;;;;;;;21.05;52.37;99504.75;6190109;23;20146;-95
2022/07/20 04:40:04;;;;;;;1.90;0.90;;;;;;;21.11;51.98;99509.56;6189987;23;20165;-96
2022/07/20 04:42:33;;;;;;;5.90;1.20;;;;;;;21.18;52.64;99509.84;6190315;23;20178;-95
2022/07/20 04:44:58;;;;;;;1.47;0.83;;;;;;;21.30;51.78;99511.41;6190451;23;20149;-95
2022/07/20 04:47:27;;;;;;;3.00;0.90;;;;;;;21.39;51.72;99503.41;6189598;23;20591;-93
2022/07/20 04:49:52;;;;;;;3.17;0.90;;;;;;;21.54;51.36;99509.16;6190140;23;20632;-96
2022/07/20 04:52:27;;;;;;;2.13;0.83;;;;;;;21.64;50.82;99506.50;6190318;23;20153;-95
2022/07/20 04:54:52;;;;;;;2.43;0.77;;;;;;;21.78;49.93;99508.72;6190141;23;20156;-95
2022/07/20 04:57:20;;;;;;;1.40;0.80;;;;;;;21.82;50.21;99510.13;6190009;23;20158;-94
2022/07/20 04:59:48;;;;;;;0.97;0.60;;;;;;;21.90;50.08;99502.28;6190229;23;20161;-93
2022/07/20 05:02:14;;;;;;;4.70;0.93;;;;;;;21.94;49.86;99503.66;6189343;23;20670;-92
2022/07/20 05:04:46;;;;;;;2.47;1.30;;;;;;;22.21;48.96;99495.75;6189839;23;20177;-93
2022/07/20 05:07:13;;;;;;;3.37;0.90;;;;;;;22.32;48.83;99498.25;6189730;23;20142;-93
2022/07/20 05:09:44;;;;;;;2.13;1.10;;;;;;;22.45;48.71;99498.75;6189990;23;20188;-94
2022/07/20 05:12:10;;;;;;;2.40;1.20;;;;;;;22.59;48.13;99511.63;6216775;23;20527;-94
2022/07/20 05:14:35;;;;;;;5.00;1.00;;;;;;;22.62;47.77;99494.44;6189886;23;20193;-93
2022/07/20 05:17:01;;;;;;;1.40;0.70;;;;;;;22.69;47.45;99498.25;6189737;23;20165;-94
2022/07/20 05:19:26;;;;;;;2.70;1.00;;;;;;;22.77;47.82;99505.53;6216501;23;20146;-95
2022/07/20 05:21:52;;;;;;;2.97;1.20;;;;;;;22.82;47.29;99505.94;6190181;23;20181;-94
2022/07/20 05:24:17;;;;;;;4.93;0.97;;;;;;;22.84;46.81;99509.28;6190077;23;20161;-93
2022/07/20 05:26:50;;;;;;;1.87;0.80;;;;;;;23.01;47.00;99519.16;6216068;23;20165;-95
2022/07/20 05:29:17;;;;;;;1.60;0.87;;;;;;;23.20;47.13;99517.22;6190691;23;20150;-95
2022/07/20 05:31:58;;;;;;;2.20;1.10;;;;;;;23.49;46.55;99508.16;6189854;23;20468;-94
2022/07/20 05:34:50;;;;;;;1.23;0.70;;;;;;;23.64;46.17;99509.31;6190110;23;20145;-94
2022/07/20 05:37:18;;;;;;;2.87;1.07;;;;;;;23.70;46.10;99514.91;6189813;23;20141;-95
2022/07/20 05:40:14;;;;;;;1.63;0.87;;;;;;;23.71;45.66;99516.59;6189765;23;20154;-96
2022/07/20 05:42:51;;;;;;;3.23;1.50;;;;;;;23.75;46.11;99512.59;6183840;23;20183;-92
2022/07/20 05:45:36;;;;;;;1.70;1.00;;;;;;;24.05;44.73;99511.31;6188695;23;20164;-95
2022/07/20 05:54:41;;;;;;;1.73;0.97;;;;;;;24.26;44.62;99508.31;6042933;23;20611;-94
2022/07/20 05:57:07;;;;;;;2.67;1.03;;;;;;;24.41;43.61;99504.03;6189734;23;20150;-93
2022/07/20 05:59:32;;;;;;;3.03;1.07;;;;;;;24.38;43.38;99515.91;6216047;23;20150;-93
2022/07/20 06:02:04;;;;;;;1.83;1.00;;;;;;;24.36;43.25;99514.38;6189904;23;20196;-93
2022/07/20 06:05:29;;;;;;;1.47;0.80;;;;;;;24.41;43.86;99509.41;6215753;23;20225;-95
2022/07/20 06:08:04;;;;;;;0.90;0.67;;;;;;;24.53;44.01;99513.47;6171974;23;20165;-94
2022/07/20 06:10:44;;;;;;;;;;;;;;;;;;;;;
2022/07/20 06:13:10;;;;;;;1.97;0.83;;;;;;;24.90;43.07;99514.00;6218086;23;20244;-92
2022/07/20 06:15:41;;;;;;;3.57;1.10;;;;;;;25.10;43.00;99506.53;6193160;23;20192;-94
2022/07/20 06:18:16;;;;;;;4.50;1.33;;;;;;;25.11;42.26;99507.34;6191715;23;20161;-94
2022/07/20 06:25:09;;;;;;;2.03;1.10;;;;;;;25.57;41.59;99509.50;6014724;23;20634;-96
2022/07/20 06:27:57;;;;;;;1.80;0.80;;;;;;;25.65;41.58;99517.56;6073498;23;20160;-93
2022/07/20 06:30:22;;;;;;;1.83;0.80;;;;;;;25.59;41.22;99513.69;6072999;23;20581;-92
2022/07/20 06:33:00;;;;;;;;;;;;;;;;;;;;;
2022/07/20 06:35:32;;;;;;;1.70;0.80;;;;;;;25.89;41.05;99514.03;6098338;23;20216;-96
2022/07/20 06:38:07;;;;;;;2.90;0.90;;;;;;;26.12;40.62;99510.53;6096786;23;20252;-93
2022/07/20 06:41:11;;;;;;;1.93;0.90;;;;;;;26.31;40.59;99508.47;6190592;23;20642;-94
2022/07/20 06:47:37;;;;;;;5.63;0.80;;;;;;;26.73;40.51;99507.13;6217374;23;20592;-95
2022/07/20 06:50:12;;;;;;;1.77;0.63;;;;;;;26.88;39.60;99503.75;6217194;23;20130;-94
2022/07/20 06:53:01;;;;;;;6.83;0.93;;;;;;;27.02;39.64;99506.53;6190287;23;20166;-94
2022/07/20 06:55:46;;;;;;;2.97;0.77;;;;;;;27.34;38.17;99517.13;6217976;23;20249;-94
2022/07/20 06:58:33;;;;;;;1.60;0.88;;;;;;;27.57;37.85;99506.38;6191730;23;20157;-95
2022/07/20 07:04:26;;;;;;;;;;;;;;;;;;;;;
2022/07/20 07:06:52;;;;;;;3.67;1.05;;;;;;;27.98;37.83;99509.59;6216711;23;20233;-94
2022/07/20 07:12:53;;;;;;;3.22;0.63;;;;;;;28.16;36.87;99493.94;6150416;23;20150;-93
2022/07/20 07:16:02;;;;;;;5.07;1.27;;;;;;;28.43;35.65;99504.06;6190552;23;20192;-92
2022/07/20 07:18:30;;;;;;;1.80;0.80;;;;;;;28.63;35.16;99496.31;6191786;23;20537;-92
2022/07/20 07:21:59;;;;;;;1.35;0.63;;;;;;;28.74;36.44;99497.69;6190857;23;20165;-95
2022/07/20 07:24:27;;;;;;;1.98;0.90;;;;;;;28.85;35.76;99494.53;6072438;23;20592;-92
2022/07/20 07:27:28;;;;;;;1.95;0.80;;;;;;;28.97;35.02;99493.84;6190951;23;20498;-94
2022/07/20 07:30:37;;;;;;;1.27;0.68;;;;;;;29.12;34.99;99489.25;6051806;23;20608;-96
2022/07/20 07:40:33;;;;;;;1.40;0.77;;;;;;;30.16;33.23;99479.69;6126744;23;20182;-94
2022/07/20 07:46:56;;;;;;;4.15;0.90;;;;;;;30.71;31.24;99492.31;6127607;23;20206;-92
2022/07/20 07:57:24;;;;;;;3.28;1.27;;;;;;;31.66;30.03;99478.69;6038769;23;20554;-95
2022/07/20 07:59:55;;;;;;;4.90;0.82;;;;;;;31.74;29.31;99467.63;5954480;24;20262;-91
2022/07/20 08:03:22;;;;;;;;;;;;;;;;;;;;;
2022/07/20 08:06:47;;;;;;;;;;;;;;;;;;;;;
2022/07/20 08:09:54;;;;;;;;;;;;;;;;;;;;;
2022/07/20 08:15:24;;;;;;;4.78;0.50;;;;;;;32.69;28.20;99468.78;6094962;23;20626;-93
2022/07/20 08:29:06;;;;;;;0.52;0.30;;;;;;;33.09;28.08;99457.78;6021219;23;20191;-93
2022/07/20 08:35:35;;;;;;;0.82;0.40;;;;;;;33.51;26.46;99470.69;6009922;23;20162;-96
2022/07/20 08:42:28;;;;;;;;;;;;;;;;;;;;;
2022/07/20 08:48:22;;;;;;;2.33;0.95;;;;;;;34.26;26.81;99439.72;5982262;24;20625;-92
2022/07/20 08:55:16;;;;;;;1.00;0.30;;;;;;;34.41;26.39;99436.63;6067344;23;20148;-94
2022/07/20 09:01:37;;;;;;;0.82;0.32;;;;;;;34.41;24.70;99440.19;6109966;23;20617;-94
2022/07/20 09:15:34;;;;;;;;;;;;;;;;;;;;;
2022/07/20 09:18:28;;;;;;;1.50;0.90;;;;;;;34.84;25.12;99421.06;5954905;24;20231;-93
2022/07/20 09:58:48;;;;;;;3.13;0.73;;;;;;;34.73;23.35;99389.13;6090459;23;20167;-93
2022/07/20 10:08:33;;;;;;;;;;;;;;;;;;;;;
2022/07/20 10:11:55;;;;;;;;;;;;;;;;;;;;;
2022/07/20 10:25:32;;;;;;;;;;;;;;;;;;;;;
2022/07/20 10:42:51;;;;;;;3.85;0.85;;;;;;;36.11;21.80;99332.41;5713200;25;20299;-94
2022/07/20 10:46:29;;;;;;;1.13;0.40;;;;;;;36.08;22.52;99321.97;5737243;24;20650;-96
2022/07/20 11:00:57;;;;;;;0.77;0.40;;;;;;;36.73;21.51;99309.66;5767604;24;20159;-93
2022/07/20 11:04:00;;;;;;;3.40;0.40;;;;;;;36.94;21.21;99300.78;5688813;25;20264;-94
2022/07/20 11:07:02;;;;;;;;;;;;;;;;;;;;;
2022/07/20 11:10:25;;;;;;;3.53;0.43;;;;;;;37.18;21.09;99295.97;5739514;24;20228;-94
2022/07/20 11:23:54;;;;;;;1.90;0.80;;;;;;;36.73;20.44;99295.16;5819702;24;20187;-91
2022/07/20 11:26:22;;;;;;;1.00;0.40;;;;;;;36.02;21.64;99285.53;5841452;24;20364;-93
2022/07/20 11:29:00;;;;;;;0.88;0.40;;;;;;;36.76;20.95;99284.56;5841035;24;20251;-90
2022/07/20 11:49:00;;;;;;;5.28;0.60;;;;;;;37.05;20.77;99268.13;5818391;24;20218;-92
2022/07/20 11:52:05;;;;;;;;;;;;;;;;;;;;;
2022/07/20 11:55:22;;;;;;;1.50;0.40;;;;;;;37.61;20.00;99254.25;5732869;24;20251;-93
2022/07/20 11:58:01;;;;;;;3.20;0.52;;;;;;;37.81;20.55;99240.03;5740460;25;20164;-93
2022/07/20 12:00:30;;;;;;;0.95;0.50;;;;;;;38.25;21.50;99238.94;5763092;24;20171;-94
2022/07/20 12:10:50;;;;;;;1.77;0.55;;;;;;;37.82;20.48;99237.03;5741502;25;20171;-95
2022/07/20 12:13:38;;;;;;;1.92;0.47;;;;;;;37.57;20.81;99239.44;5741829;25;20169;-91
2022/07/20 12:16:19;;;;;;;1.35;0.68;;;;;;;36.78;21.06;99225.03;5721570;25;20258;-95
2022/07/20 12:22:05;;;;;;;1.27;0.50;;;;;;;36.15;22.75;99224.38;5831697;24;20598;-92
2022/07/20 12:25:05;;;;;;;;;;;;;;;;;;;;;
2022/07/20 12:28:20;;;;;;;;;;;;;;;;;;;;;
2022/07/20 12:31:09;;;;;;;1.08;0.43;;;;;;;36.93;21.29;99203.41;5689674;25;20265;-93
2022/07/20 12:33:37;;;;;;;4.72;1.63;;;;;;;37.52;20.88;99214.75;5687234;25;20233;-92
2022/07/20 12:44:37;;;;;;;0.63;0.40;;;;;;;37.32;20.38;99206.22;5682935;25;20741;-92
2022/07/20 12:47:33;;;;;;;;;;;;;;;;;;;;;
2022/07/20 12:50:15;;;;;;;6.05;0.47;;;;;;;37.39;21.16;99198.66;5660670;25;20295;-94
2022/07/20 12:52:46;;;;;;;1.00;0.52;;;;;;;37.18;21.22;99194.81;5680446;25;20176;-92
2022/07/20 12:55:14;;;;;;;1.30;0.52;;;;;;;36.71;21.12;99188.03;5659253;25;20168;-91
2022/07/20 12:57:43;;;;;;;1.85;0.40;;;;;;;36.86;22.15;99178.16;5638305;25;20195;-93
2022/07/20 13:00:26;;;;;;;;;;;;;;;;;;;;;
2022/07/20 13:02:59;;;;;;;2.85;0.30;;;;;;;37.11;21.03;99169.53;5714135;25;20288;-94
2022/07/20 13:05:47;;;;;;;;;;;;;;;;;;;;;
2022/07/20 13:09:00;;;;;;;;;;;;;;;;;;;;;
2022/07/20 13:11:58;;;;;;;6.68;0.60;;;;;;;36.58;21.52;99172.78;5818920;24;20243;-92
2022/07/20 13:14:25;;;;;;;2.65;0.60;;;;;;;36.40;21.40;99156.56;5875644;24;20225;-91
2022/07/20 13:16:57;;;;;;;2.75;0.50;;;;;;;36.74;21.77;99152.81;5990819;23;20239;-92
2022/07/20 13:19:36;;;;;;;2.30;0.60;;;;;;;36.64;21.54;99141.72;6127344;23;20136;-91
2022/07/20 13:22:04;;;;;;;0.98;0.30;;;;;;;37.24;21.39;99143.78;6126737;23;20235;-91
2022/07/20 13:24:31;;;;;;;2.03;0.38;;;;;;;37.59;21.42;99146.16;6103229;23;20163;-91
2022/07/20 13:27:05;;;;;;;1.30;0.63;;;;;;;36.99;21.80;99136.03;6102789;23;20199;-95
2022/07/20 13:29:35;;;;;;;1.75;0.63;;;;;;;36.71;22.70;99136.94;6128015;23;20148;-92
2022/07/20 13:32:01;;;;;;;1.02;0.40;;;;;;;36.56;21.43;99136.69;6127735;23;20152;-90
2022/07/20 13:34:28;;;;;;;0.77;0.50;;;;;;;36.62;21.55;99130.25;6127561;23;20223;-91
2022/07/20 13:36:55;;;;;;;1.70;0.60;;;;;;;37.27;21.11;99135.03;6102597;23;20170;-90
2022/07/20 13:39:28;;;;;;;0.90;0.43;;;;;;;37.41;20.96;99128.16;6128383;23;20151;-93
2022/07/20 13:42:23;;;;;;;3.53;0.93;;;;;;;37.72;20.56;99132.09;6103040;23;20630;-92
2022/07/20 13:44:57;;;;;;;1.52;0.50;;;;;;;37.51;20.78;99128.28;6095849;23;20160;-91
2022/07/20 13:47:35;;;;;;;2.10;0.50;;;;;;;37.61;20.69;99125.66;6102418;23;20529;-91
2022/07/20 13:50:34;;;;;;;0.77;0.38;;;;;;;37.80;20.16;99116.06;6110406;23;20195;-92
2022/07/20 13:53:09;;;;;;;1.08;0.38;;;;;;;37.92;20.69;99116.75;6057959;23;20167;-93
2022/07/20 13:55:39;;;;;;;0.82;0.45;;;;;;;37.84;20.25;99106.22;6132228;23;20151;-93
2022/07/20 13:58:15;;;;;;;1.05;0.40;;;;;;;38.20;19.97;99107.47;6131618;23;20271;-91
2022/07/20 14:01:16;;;;;;;2.05;0.80;;;;;;;38.16;20.47;99092.63;6157114;23;20456;-91
2022/07/20 14:03:45;;;;;;;4.65;0.68;;;;;;;38.26;20.26;99100.13;6112274;23;20227;-92
2022/07/20 14:13:09;;;;;;;1.85;0.47;;;;;;;38.52;19.49;99088.31;6027416;23;20185;-93
2022/07/20 14:18:44;;;;;;;1.00;0.30;;;;;;;38.90;19.45;99079.81;6027692;23;20769;-92
2022/07/20 14:21:25;;;;;;;1.23;0.57;;;;;;;38.81;19.17;99086.09;6039605;23;20145;-94
2022/07/20 14:24:06;;;;;;;0.75;0.30;;;;;;;38.40;19.67;99074.78;6037372;23;20311;-92
2022/07/20 14:26:39;;;;;;;2.67;0.70;;;;;;;38.41;19.95;99070.97;6029304;23;20241;-91
2022/07/20 14:29:09;;;;;;;1.17;0.55;;;;;;;37.87;19.65;99069.38;6038847;23;20145;-92
2022/07/20 14:31:35;;;;;;;2.30;0.60;;;;;;;37.69;20.53;99073.22;6038695;23;20158;-90
2022/07/20 14:34:08;;;;;;;1.42;0.50;;;;;;;38.18;19.94;99070.47;6039366;23;20142;-91
2022/07/20 14:36:48;;;;;;;1.65;0.40;;;;;;;37.71;19.87;99064.78;6035570;23;20177;-92
2022/07/20 14:39:40;;;;;;;;;;;;;;;;;;;;;
2022/07/20 14:42:07;;;;;;;2.58;0.95;;;;;;;37.44;20.03;99067.50;6035032;23;20240;-90
2022/07/20 14:45:07;;;;;;;1.73;0.65;;;;;;;38.04;19.89;99065.44;6054170;23;20171;-90
2022/07/20 14:47:48;;;;;;;2.75;0.40;;;;;;;37.86;20.21;99062.22;6144899;23;20155;-91
2022/07/20 14:50:48;;;;;;;1.42;0.40;;;;;;;37.78;19.82;99058.03;6125975;23;20175;-91
2022/07/20 14:53:27;;;;;;;;;;;;;;;;;;;;;
2022/07/20 14:55:58;;;;;;;3.45;0.70;;;;;;;38.08;20.03;99057.50;6151044;23;20630;-90
2022/07/20 14:58:31;;;;;;;1.00;0.50;;;;;;;38.05;19.94;99056.09;6129748;23;20174;-90
2022/07/20 15:01:30;;;;;;;;;;;;;;;;;;;;;
2022/07/20 15:04:33;;;;;;;1.33;0.68;;;;;;;38.28;19.24;99045.91;6155238;23;20839;-91
2022/07/20 15:07:03;;;;;;;5.38;1.15;;;;;;;38.42;19.75;99049.91;6146890;23;20159;-90
2022/07/20 15:09:37;;;;;;;2.80;0.52;;;;;;;38.28;19.48;99048.66;6156638;23;20158;-91
2022/07/20 15:12:09;;;;;;;2.13;0.60;;;;;;;37.81;20.22;99046.56;6131502;23;20212;-91
2022/07/20 15:14:38;;;;;;;0.95;0.50;;;;;;;37.82;20.30;99052.84;6131164;23;20543;-90
2022/07/20 15:20:30;;;;;;;1.42;0.60;;;;;;;37.13;19.77;99047.13;6010056;23;20208;-90
2022/07/20 15:23:10;;;;;;;0.52;0.32;;;;;;;36.84;20.43;99051.06;6149240;23;20186;-90
2022/07/20 15:25:37;;;;;;;1.42;0.57;;;;;;;36.39;20.76;99045.72;6121000;23;20542;-90
2022/07/20 15:28:20;;;;;;;;;;;;;;;;;;;;;
2022/07/20 15:30:51;;;;;;;0.85;0.57;;;;;;;35.87;21.36;99041.53;6154883;23;20237;-90
2022/07/20 15:33:20;;;;;;;0.60;0.40;;;;;;;35.62;21.75;99050.06;6155817;23;20151;-90
2022/07/20 15:35:47;;;;;;;0.90;0.40;;;;;;;35.63;21.92;99046.28;6157058;23;20567;-91
2022/07/20 15:38:14;;;;;;;1.05;0.50;;;;;;;36.05;21.94;99041.34;6130453;23;20170;-90
2022/07/20 15:40:41;;;;;;;1.08;0.50;;;;;;;36.55;21.19;99036.72;6155750;23;20537;-90
2022/07/20 15:43:17;;;;;;;1.65;0.30;;;;;;;36.76;20.77;99044.13;6129988;23;20193;-91
2022/07/20 17:10:53;;;;;;;;;;;;;;;;;;;;;
2022/07/20 18:01:19;;;;;;;3.50;1.45;;;;;;;32.56;27.03;99069.81;6045454;23;20172;-93
2022/07/20 18:12:08;;;;;;;;;;;;;;;;;;;;;
2022/07/20 18:22:27;;;;;;;;;;;;;;;;;;;;;
2022/07/20 18:32:43;;;;;;;;;;;;;;;;;;;;;
2022/07/20 18:39:48;;;;;;;;;;;;;;;;;;;;;
2022/07/20 18:46:08;;;;;;;2.75;1.15;;;;;;;31.35;29.34;99086.38;5791887;24;20163;-92
2022/07/20 18:49:00;;;;;;;1.77;0.70;;;;;;;31.31;30.27;99096.00;5791524;24;20168;-92
2022/07/20 18:51:45;;;;;;;1.92;0.75;;;;;;;31.24;30.21;99097.88;5971061;23;20558;-93
2022/07/20 18:54:37;;;;;;;;;;;;;;;;;;;;;
2022/07/20 18:57:11;;;;;;;2.00;0.60;;;;;;;30.97;31.23;99100.69;6037711;23;20256;-92
2022/07/20 19:00:18;;;;;;;;;;;;;;;;;;;;;
2022/07/20 19:02:53;;;;;;;3.78;0.80;;;;;;;30.80;31.33;99099.44;6147441;23;20237;-92
2022/07/20 19:05:28;;;;;;;3.13;1.08;;;;;;;30.84;31.66;99106.09;6156472;23;20126;-92
2022/07/20 19:07:58;;;;;;;1.20;0.57;;;;;;;30.68;31.30;99106.53;6131217;23;20174;-92
2022/07/20 19:10:25;;;;;;;1.67;0.82;;;;;;;30.56;31.21;99113.59;6130831;23;20155;-93
2022/07/20 19:13:02;;;;;;;;;;;;;;;;;;;;;
2022/07/20 19:15:30;;;;;;;4.70;1.35;;;;;;;30.33;32.11;99107.75;6157269;23;20547;-92
2022/07/20 19:18:15;;;;;;;;;;;;;;;;;;;;;
2022/07/20 19:20:46;;;;;;;2.33;0.93;;;;;;;30.01;31.89;99106.66;6156573;23;20319;-92
2022/07/20 19:23:23;;;;;;;2.90;1.10;;;;;;;29.90;32.26;99109.97;6131218;23;20198;-93
2022/07/20 19:25:50;;;;;;;1.35;0.90;;;;;;;29.74;32.09;99103.03;6131681;23;20142;-93